Time;durP1;ratioP1;P1;durP2;ratioP2;P2;SDS_P1;SDS_P2;PMS_P1;PMS_P2;Temp;Humidity;BMP_temperature;BMP_pressure;BME280_temperature;BME280_humidity;BME280_pressure;Samples;Min_cycle;Max_cycle;Signal;HPM_P1;HPM_P2
2022/01/03 00:00:32;;;;;;;16.40;2.67;;;8.20;99.90;;;;;;4909533;29;20062;-48
2022/01/03 00:03:00;;;;;;;13.63;2.65;;;8.10;99.90;;;;;;4926045;29;20118;-47
2022/01/03 00:05:26;;;;;;;11.98;2.70;;;8.20;99.90;;;;;;4909842;29;20055;-47
2022/01/03 00:07:53;;;;;;;15.13;3.13;;;8.20;99.90;;;;;;4909799;28;20058;-47
2022/01/03 00:10:19;;;;;;;27.27;3.97;;;8.20;99.90;;;;;;4901830;29;20058;-48
2022/01/03 00:12:47;;;;;;;20.38;3.90;;;8.20;99.90;;;;;;4921590;28;20083;-47
2022/01/03 00:15:14;;;;;;;20.35;3.33;;;8.10;99.90;;;;;;4924271;28;20090;-47
2022/01/03 00:17:41;;;;;;;20.48;3.15;;;8.10;99.90;;;;;;4945666;28;20059;-51
2022/01/03 00:20:12;;;;;;;31.55;3.92;;;8.10;99.90;;;;;;4927904;29;20085;-49
2022/01/03 00:23:02;;;;;;;20.35;4.22;;;8.10;99.90;;;;;;4924048;29;20101;-49
2022/01/03 00:25:29;;;;;;;19.33;3.58;;;8.10;99.90;;;;;;4900790;29;20094;-49
2022/01/03 00:28:15;;;;;;;14.00;3.25;;;8.10;99.90;;;;;;4891525;29;20060;-48
2022/01/03 00:30:44;;;;;;;23.73;4.20;;;8.10;99.90;;;;;;4874138;29;20511;-48
2022/01/03 00:33:11;;;;;;;19.80;3.45;;;8.00;99.90;;;;;;4899430;29;20055;-47
2022/01/03 00:35:41;;;;;;;18.20;3.47;;;8.00;99.90;;;;;;4891780;29;20488;-48
2022/01/03 00:38:12;;;;;;;25.17;4.53;;;8.10;99.90;;;;;;4900388;29;20159;-47
2022/01/03 00:40:39;;;;;;;24.42;4.70;;;8.10;99.90;;;;;;4883457;29;20070;-47
2022/01/03 00:43:05;;;;;;;24.25;3.90;;;8.10;99.90;;;;;;4892321;29;20479;-49
2022/01/03 00:45:32;;;;;;;19.83;3.88;;;8.00;99.90;;;;;;4884916;29;20048;-47
2022/01/03 00:47:58;;;;;;;20.77;3.83;;;8.00;99.90;;;;;;4897744;29;20104;-46
2022/01/03 00:50:24;;;;;;;24.90;4.20;;;8.00;99.90;;;;;;4892446;29;20064;-49
2022/01/03 00:52:51;;;;;;;20.75;3.60;;;8.00;99.90;;;;;;4897073;29;20115;-47
2022/01/03 00:55:18;;;;;;;17.83;4.22;;;8.00;99.90;;;;;;4899271;29;20060;-47
2022/01/03 00:58:00;;;;;;;17.88;3.67;;;7.90;99.90;;;;;;4900185;29;20662;-47
2022/01/03 01:00:32;;;;;;;27.48;4.57;;;8.00;99.90;;;;;;4881471;29;20436;-48
2022/01/03 01:03:10;;;;;;;22.38;3.85;;;8.10;99.90;;;;;;4903288;29;20636;-49
2022/01/03 01:05:44;;;;;;;25.80;4.72;;;8.10;99.90;;;;;;4924091;29;20431;-47
2022/01/03 01:08:11;;;;;;;24.92;5.20;;;8.10;99.90;;;;;;4919421;29;20419;-49
2022/01/03 01:10:40;;;;;;;23.65;4.25;;;8.10;99.90;;;;;;4924452;29;20462;-47
2022/01/03 01:13:12;;;;;;;23.08;4.28;;;8.10;99.90;;;;;;4922370;29;20178;-47
2022/01/03 01:15:38;;;;;;;26.80;4.43;;;8.10;99.90;;;;;;4923146;29;20055;-49
2022/01/03 01:18:05;;;;;;;27.23;4.30;;;8.10;99.90;;;;;;4922247;29;20051;-48
2022/01/03 01:20:33;;;;;;;18.10;3.83;;;8.00;99.90;;;;;;4924456;29;20052;-47
2022/01/03 01:22:59;;;;;;;28.33;5.07;;;8.10;99.90;;;;;;4923237;29;20585;-47
2022/01/03 01:28:05;;;;;;;22.33;4.97;;;8.20;99.90;;;;;;4924811;29;20087;-48
2022/01/03 01:30:31;;;;;;;30.67;4.25;;;8.20;99.90;;;;;;4925775;29;20086;-50
2022/01/03 01:33:08;;;;;;;22.88;4.32;;;8.20;99.90;;;;;;4925291;29;20499;-48
2022/01/03 01:35:55;;;;;;;28.17;4.10;;;8.20;99.90;;;;;;4930840;29;20151;-50
2022/01/03 01:38:23;;;;;;;35.50;5.97;;;8.20;99.90;;;;;;4924525;29;20109;-50
2022/01/03 01:40:52;;;;;;;25.42;4.82;;;8.10;99.90;;;;;;4928669;29;20194;-50
2022/01/03 01:43:45;;;;;;;28.15;5.45;;;8.10;99.90;;;;;;4927236;29;20051;-47
2022/01/03 01:46:13;;;;;;;21.80;4.72;;;8.10;99.90;;;;;;4926440;29;20130;-50
2022/01/03 01:48:42;;;;;;;22.92;4.65;;;8.10;99.90;;;;;;4926099;29;20102;-48
2022/01/03 01:51:12;;;;;;;32.40;4.93;;;8.10;99.90;;;;;;4941319;29;20066;-48
2022/01/03 01:53:52;;;;;;;27.40;5.88;;;8.10;99.90;;;;;;4945676;29;20055;-47
2022/01/03 01:56:22;;;;;;;31.77;4.97;;;8.00;99.90;;;;;;4943920;28;20086;-48
2022/01/03 01:59:12;;;;;;;24.38;5.68;;;8.00;99.90;;;;;;4945706;29;20051;-50
2022/01/03 02:02:26;;;;;;;24.00;4.28;;;8.10;99.90;;;;;;4945110;29;20043;-47
2022/01/03 02:05:16;;;;;;;23.52;5.50;;;8.10;99.90;;;;;;4849688;29;20199;-48
2022/01/03 02:08:03;;;;;;;36.15;6.72;;;8.10;99.90;;;;;;4885080;29;20089;-47
2022/01/03 02:10:38;;;;;;;26.75;4.43;;;8.00;99.90;;;;;;4885735;29;20716;-49
2022/01/03 02:13:04;;;;;;;30.85;5.65;;;8.00;99.90;;;;;;4880447;29;20584;-47
2022/01/03 02:15:32;;;;;;;25.13;4.78;;;8.00;99.90;;;;;;4881356;29;20143;-47
2022/01/03 02:17:58;;;;;;;29.48;4.88;;;8.00;99.90;;;;;;4870341;29;20543;-48
2022/01/03 02:20:26;;;;;;;28.10;4.50;;;8.00;99.90;;;;;;4885726;29;20048;-48
2022/01/03 02:22:54;;;;;;;28.17;4.72;;;7.90;99.90;;;;;;4869794;29;20064;-47
2022/01/03 02:25:21;;;;;;;31.35;5.15;;;7.90;99.90;;;;;;4886288;29;20573;-47
2022/01/03 02:27:52;;;;;;;31.95;5.47;;;7.90;99.90;;;;;;4859747;29;20558;-47
2022/01/03 02:30:22;;;;;;;26.48;4.90;;;7.90;99.90;;;;;;4885133;29;20302;-48
2022/01/03 02:32:48;;;;;;;27.42;4.47;;;7.90;99.90;;;;;;4884585;29;20589;-47
2022/01/03 02:35:14;;;;;;;31.70;5.40;;;7.80;99.90;;;;;;4911272;28;20074;-47
2022/01/03 02:37:43;;;;;;;25.05;5.05;;;7.80;99.90;;;;;;4945502;29;20117;-47
2022/01/03 02:40:11;;;;;;;28.40;5.53;;;7.80;99.90;;;;;;4937890;29;20405;-47
2022/01/03 02:42:38;;;;;;;21.33;4.20;;;7.80;99.90;;;;;;4945478;29;20054;-50
2022/01/03 02:45:14;;;;;;;31.67;4.25;;;7.80;99.90;;;;;;4946248;29;20054;-49
2022/01/03 02:47:41;;;;;;;31.25;5.35;;;7.80;99.90;;;;;;4948702;29;20051;-47
2022/01/03 02:50:09;;;;;;;31.85;6.25;;;7.80;99.90;;;;;;4925233;29;20068;-51
2022/01/03 02:52:35;;;;;;;35.63;8.75;;;7.70;99.90;;;;;;4924011;29;20059;-51
2022/01/03 02:55:03;;;;;;;27.25;4.18;;;7.80;99.90;;;;;;4925005;29;20058;-50
2022/01/03 02:57:37;;;;;;;25.67;5.35;;;7.70;99.90;;;;;;4925768;29;20079;-48
2022/01/03 03:00:06;;;;;;;21.88;5.15;;;7.70;99.90;;;;;;4922289;29;20059;-47
2022/01/03 03:02:32;;;;;;;34.22;4.97;;;7.70;99.90;;;;;;4924391;29;20062;-47
2022/01/03 03:05:01;;;;;;;35.55;6.00;;;7.70;99.90;;;;;;4926011;29;20510;-47
2022/01/03 03:07:28;;;;;;;32.72;6.35;;;7.70;99.90;;;;;;4917496;29;20134;-49
2022/01/03 03:09:55;;;;;;;29.08;6.00;;;7.70;99.90;;;;;;4920983;29;20465;-47
2022/01/03 03:12:22;;;;;;;30.33;5.30;;;7.70;99.90;;;;;;4924709;29;20052;-47
2022/01/03 03:14:49;;;;;;;34.15;5.00;;;7.70;99.90;;;;;;4900694;29;20056;-50
2022/01/03 03:17:18;;;;;;;39.00;5.93;;;7.70;99.90;;;;;;4925989;29;20113;-48
2022/01/03 03:19:56;;;;;;;28.92;5.53;;;7.80;99.90;;;;;;4914276;29;20498;-49
2022/01/03 03:22:23;;;;;;;27.33;5.28;;;7.80;99.90;;;;;;4912916;29;20067;-47
2022/01/03 03:24:50;;;;;;;27.52;4.93;;;7.80;99.90;;;;;;4925281;29;20475;-47
2022/01/03 03:27:16;;;;;;;27.10;5.05;;;7.80;99.90;;;;;;4925790;29;20411;-47
2022/01/03 03:29:47;;;;;;;29.00;6.30;;;7.90;99.90;;;;;;4906861;29;20075;-49
2022/01/03 03:32:13;;;;;;;32.72;5.35;;;7.90;99.90;;;;;;4924255;29;20118;-48
2022/01/03 03:34:39;;;;;;;37.30;6.32;;;7.90;99.90;;;;;;4934212;29;20043;-48
2022/01/03 03:37:05;;;;;;;27.98;5.50;;;8.00;99.90;;;;;;4924703;29;20050;-48
2022/01/03 03:39:33;;;;;;;33.42;6.45;;;8.00;99.90;;;;;;4923542;29;20047;-49
2022/01/03 03:42:00;;;;;;;30.52;7.10;;;8.00;99.90;;;;;;4924301;29;20167;-46
2022/01/03 03:44:27;;;;;;;34.55;5.72;;;8.00;99.90;;;;;;4925707;29;20478;-48
2022/01/03 03:46:53;;;;;;;40.17;6.28;;;8.00;99.90;;;;;;4926039;29;20106;-48
2022/01/03 03:49:18;;;;;;;31.52;5.90;;;8.00;99.90;;;;;;4925253;29;20058;-50
2022/01/03 03:51:44;;;;;;;32.28;5.82;;;7.90;99.90;;;;;;4943461;29;20083;-47
2022/01/03 03:54:10;;;;;;;35.03;7.15;;;7.90;99.90;;;;;;4944139;29;20055;-50
2022/01/03 03:56:35;;;;;;;28.88;5.38;;;7.90;99.90;;;;;;4935880;29;20903;-50
2022/01/03 03:59:04;;;;;;;32.15;6.03;;;7.80;99.90;;;;;;4923421;29;20052;-47
2022/01/03 04:01:30;;;;;;;35.58;5.45;;;7.80;99.90;;;;;;4943735;28;20061;-49
2022/01/03 04:03:55;;;;;;;33.90;5.75;;;7.70;99.90;;;;;;4945468;29;20066;-49
2022/01/03 04:06:21;;;;;;;26.70;5.18;;;7.70;99.90;;;;;;4944325;29;20104;-50
2022/01/03 04:08:47;;;;;;;29.13;5.40;;;7.70;99.90;;;;;;4943508;29;20063;-50
2022/01/03 04:11:15;;;;;;;36.03;7.20;;;7.70;99.90;;;;;;4933770;29;20047;-47
2022/01/03 04:13:42;;;;;;;29.48;5.00;;;7.60;99.90;;;;;;4924583;29;20055;-47
2022/01/03 04:16:08;;;;;;;35.17;6.10;;;7.60;99.90;;;;;;4944122;29;20502;-47
2022/01/03 04:18:34;;;;;;;35.42;6.10;;;7.60;99.90;;;;;;4944196;29;20077;-47
2022/01/03 04:20:59;;;;;;;32.00;6.57;;;7.60;99.90;;;;;;4923954;29;20465;-49
2022/01/03 04:23:25;;;;;;;29.27;6.90;;;7.60;99.90;;;;;;4921042;29;20119;-47
2022/01/03 04:25:51;;;;;;;28.67;5.57;;;7.50;99.90;;;;;;4943181;29;20466;-50
2022/01/03 04:28:18;;;;;;;32.97;5.20;;;7.60;99.90;;;;;;4942957;29;20122;-47
2022/01/03 04:30:44;;;;;;;39.30;5.85;;;7.50;99.90;;;;;;4942915;29;20130;-47
2022/01/03 04:33:10;;;;;;;31.85;7.32;;;7.60;99.90;;;;;;4938949;29;20242;-47
2022/01/03 04:35:38;;;;;;;37.50;6.18;;;7.60;99.90;;;;;;4943662;29;20133;-48
2022/01/03 04:38:04;;;;;;;33.97;5.85;;;7.60;99.90;;;;;;4926478;29;20074;-48
2022/01/03 04:40:30;;;;;;;39.35;6.40;;;7.60;99.90;;;;;;4943591;29;20059;-48
2022/01/03 04:42:56;;;;;;;35.42;6.22;;;7.60;99.90;;;;;;4910053;29;20514;-47
2022/01/03 04:45:22;;;;;;;40.97;6.43;;;7.60;99.90;;;;;;4943112;29;20252;-47
2022/01/03 04:47:48;;;;;;;39.53;6.65;;;7.60;99.90;;;;;;4943058;29;20588;-47
2022/01/03 04:50:14;;;;;;;37.17;6.80;;;7.60;99.90;;;;;;4943127;29;20054;-50
2022/01/03 04:52:40;;;;;;;31.27;5.93;;;7.60;99.90;;;;;;4942970;29;20067;-48
2022/01/03 04:55:06;;;;;;;33.95;5.50;;;7.60;99.90;;;;;;4942886;29;20050;-48
2022/01/03 04:57:32;;;;;;;33.78;6.38;;;7.60;99.90;;;;;;4942780;29;20055;-47
2022/01/03 04:59:58;;;;;;;35.83;6.82;;;7.50;99.90;;;;;;4919284;29;20429;-48
2022/01/03 05:02:24;;;;;;;34.83;6.45;;;7.50;99.90;;;;;;4928151;29;20490;-50
2022/01/03 05:04:49;;;;;;;46.25;8.43;;;7.50;99.90;;;;;;4926360;29;20070;-48
2022/01/03 05:07:15;;;;;;;31.83;5.75;;;7.50;99.90;;;;;;4942409;29;20051;-47
2022/01/03 05:09:41;;;;;;;33.95;5.38;;;7.50;99.90;;;;;;4921254;29;20069;-49
2022/01/03 05:12:08;;;;;;;46.17;7.43;;;7.50;99.90;;;;;;4943462;28;20142;-49
2022/01/03 05:14:34;;;;;;;37.55;6.55;;;7.50;99.90;;;;;;4949198;29;20043;-48
2022/01/03 05:16:59;;;;;;;46.28;7.10;;;7.50;99.90;;;;;;4950541;29;20059;-50
2022/01/03 05:19:25;;;;;;;40.30;7.45;;;7.50;99.90;;;;;;4947558;29;20899;-57
2022/01/03 05:21:52;;;;;;;36.97;6.35;;;7.50;99.90;;;;;;4947051;29;20055;-50
2022/01/03 05:24:18;;;;;;;45.22;8.30;;;7.50;99.90;;;;;;4929482;29;20603;-47
2022/01/03 05:26:44;;;;;;;31.90;7.32;;;7.50;99.90;;;;;;4945928;29;20058;-47
2022/01/03 05:29:10;;;;;;;37.20;6.90;;;7.50;99.90;;;;;;4923195;29;20067;-49
2022/01/03 05:31:36;;;;;;;33.40;5.97;;;7.50;99.90;;;;;;4943106;28;20055;-48
2022/01/03 05:34:02;;;;;;;37.95;6.18;;;7.50;99.90;;;;;;4950152;28;20051;-48
2022/01/03 05:36:28;;;;;;;44.60;7.05;;;7.50;99.90;;;;;;4932729;28;20051;-48
2022/01/03 05:38:54;;;;;;;31.45;6.20;;;7.50;99.90;;;;;;4945555;28;20106;-48
2022/01/03 05:41:21;;;;;;;38.17;7.38;;;7.50;99.90;;;;;;4946512;28;20059;-47
2022/01/03 05:43:49;;;;;;;40.40;7.05;;;7.50;99.90;;;;;;4946168;28;20121;-46
2022/01/03 05:46:15;;;;;;;43.35;8.13;;;7.50;99.90;;;;;;4945974;28;20122;-47
2022/01/03 05:48:41;;;;;;;35.95;7.68;;;7.50;99.90;;;;;;4928572;29;20073;-51
2022/01/03 05:51:07;;;;;;;46.97;7.68;;;7.50;99.90;;;;;;4912948;28;20055;-49
2022/01/03 05:53:32;;;;;;;46.38;7.78;;;7.50;99.90;;;;;;4945584;28;20059;-48
2022/01/03 05:56:00;;;;;;;40.13;7.22;;;7.50;99.90;;;;;;4928152;28;20110;-48
2022/01/03 05:58:25;;;;;;;41.42;6.38;;;7.50;99.90;;;;;;4935618;28;20051;-49
2022/01/03 06:00:51;;;;;;;36.15;6.97;;;7.50;99.90;;;;;;4929036;29;20575;-47
2022/01/03 06:03:20;;;;;;;47.47;7.60;;;7.50;99.90;;;;;;4931827;29;20577;-49
2022/01/03 06:06:05;;;;;;;40.28;6.65;;;7.50;99.90;;;;;;4945942;29;20058;-48
2022/01/03 06:08:31;;;;;;;43.80;8.30;;;7.50;99.90;;;;;;4938795;29;20059;-47
2022/01/03 06:10:57;;;;;;;50.25;9.02;;;7.50;99.90;;;;;;4919295;29;20062;-48
2022/01/03 06:13:23;;;;;;;38.55;6.70;;;7.50;99.90;;;;;;4929073;29;20107;-48
2022/01/03 06:15:49;;;;;;;36.95;6.93;;;7.50;99.90;;;;;;4926507;29;20098;-47
2022/01/03 06:18:16;;;;;;;44.60;6.70;;;7.40;99.90;;;;;;4930343;29;20047;-47
2022/01/03 06:20:44;;;;;;;43.95;8.50;;;7.40;99.90;;;;;;4943343;29;20498;-48
2022/01/03 06:23:11;;;;;;;40.35;7.75;;;7.50;99.90;;;;;;4922357;29;20055;-48
2022/01/03 06:25:37;;;;;;;39.65;6.95;;;7.50;99.90;;;;;;4926775;29;20101;-47
2022/01/03 06:28:08;;;;;;;43.60;8.25;;;7.50;99.90;;;;;;4928946;29;20058;-48
2022/01/03 06:30:36;;;;;;;42.60;7.40;;;7.40;99.90;;;;;;4945125;28;20085;-48
2022/01/03 06:33:02;;;;;;;39.83;6.80;;;7.40;99.90;;;;;;4946784;29;20121;-53
2022/01/03 06:35:28;;;;;;;38.97;6.35;;;7.40;99.90;;;;;;4934943;29;20090;-48
2022/01/03 06:37:54;;;;;;;38.35;7.50;;;7.40;99.90;;;;;;4940041;28;20288;-49
2022/01/03 06:40:20;;;;;;;41.03;7.80;;;7.50;99.90;;;;;;4945320;28;20549;-48
2022/01/03 06:42:46;;;;;;;46.95;7.70;;;7.50;99.90;;;;;;4927211;28;20054;-47
2022/01/03 06:45:11;;;;;;;41.28;9.30;;;7.50;99.90;;;;;;4945419;28;20047;-49
2022/01/03 06:47:37;;;;;;;37.20;6.72;;;7.50;99.90;;;;;;4910440;28;20071;-47
2022/01/03 06:50:04;;;;;;;39.28;7.03;;;7.50;99.90;;;;;;4929326;29;20062;-48
2022/01/03 06:52:30;;;;;;;40.42;6.50;;;7.50;99.90;;;;;;4944918;28;20063;-48
2022/01/03 06:54:56;;;;;;;43.63;7.82;;;7.40;99.90;;;;;;4945079;28;20524;-47
2022/01/03 06:57:22;;;;;;;39.95;6.75;;;7.50;99.90;;;;;;4944807;28;20055;-47
2022/01/03 06:59:47;;;;;;;38.55;8.35;;;7.40;99.90;;;;;;4941049;28;20047;-47
2022/01/03 07:02:13;;;;;;;44.17;7.40;;;7.50;99.90;;;;;;4944797;29;20055;-47
2022/01/03 07:04:39;;;;;;;44.65;7.47;;;7.40;99.90;;;;;;4926608;29;20080;-47
2022/01/03 07:07:05;;;;;;;43.65;7.28;;;7.40;99.90;;;;;;4925847;28;20066;-48
2022/01/03 07:09:31;;;;;;;38.50;7.20;;;7.40;99.90;;;;;;4944181;28;20055;-48
2022/01/03 07:11:57;;;;;;;41.10;8.85;;;7.40;99.90;;;;;;4933353;28;20125;-50
2022/01/03 07:19:43;;;;;;;52.65;8.55;;;7.50;99.90;;;;;;4944881;28;20070;-48
2022/01/03 07:22:09;;;;;;;45.28;6.50;;;7.60;99.90;;;;;;4944461;28;20058;-51
2022/01/03 07:24:36;;;;;;;53.05;7.72;;;7.70;99.90;;;;;;4926720;29;20058;-49
2022/01/03 07:27:04;;;;;;;42.95;7.40;;;7.70;99.90;;;;;;4935807;28;20122;-48
2022/01/03 07:29:30;;;;;;;43.22;6.88;;;7.70;99.90;;;;;;4944670;28;20062;-47
2022/01/03 07:31:56;;;;;;;49.72;8.00;;;7.80;99.90;;;;;;4946168;28;20126;-47
2022/01/03 07:34:22;;;;;;;50.92;8.55;;;7.80;99.90;;;;;;4927286;28;20091;-48
2022/01/03 07:36:48;;;;;;;41.83;7.82;;;7.90;99.90;;;;;;4928567;28;20446;-48
2022/01/03 07:39:14;;;;;;;43.85;7.68;;;7.90;99.90;;;;;;4944801;28;20039;-51
2022/01/03 07:41:39;;;;;;;49.50;8.48;;;7.90;99.90;;;;;;4946232;28;20058;-48
2022/01/03 07:44:05;;;;;;;44.60;8.18;;;7.90;99.90;;;;;;4937565;28;20391;-50
2022/01/03 07:46:31;;;;;;;39.45;6.90;;;7.90;99.90;;;;;;4944593;28;20051;-54
2022/01/03 07:48:56;;;;;;;42.72;8.50;;;7.90;99.90;;;;;;4939586;28;20051;-48
2022/01/03 07:51:22;;;;;;;38.72;7.75;;;8.00;99.90;;;;;;4912988;29;20068;-49
2022/01/03 07:53:48;;;;;;;47.47;7.85;;;8.00;99.90;;;;;;4915947;29;20043;-48
2022/01/03 07:56:14;;;;;;;37.83;7.28;;;8.00;99.90;;;;;;4917314;29;20422;-48
2022/01/03 07:58:43;;;;;;;38.28;6.72;;;8.00;99.90;;;;;;4922486;29;20061;-50
2022/01/03 08:01:09;;;;;;;45.30;6.72;;;7.90;99.90;;;;;;4921669;29;20075;-48
2022/01/03 08:03:34;;;;;;;41.25;7.55;;;7.90;99.90;;;;;;4923716;29;20180;-48
2022/01/03 08:06:00;;;;;;;38.83;7.75;;;7.90;99.90;;;;;;4923830;29;20071;-51
2022/01/03 08:08:26;;;;;;;36.83;7.68;;;7.90;99.90;;;;;;4923480;29;20553;-47
2022/01/03 08:10:51;;;;;;;45.25;9.77;;;7.90;99.90;;;;;;4936446;28;20581;-48
2022/01/03 08:13:17;;;;;;;44.53;8.10;;;7.90;99.90;;;;;;4942624;29;20086;-49
2022/01/03 08:15:43;;;;;;;36.50;7.20;;;8.00;99.90;;;;;;4942379;28;20053;-47
2022/01/03 08:18:09;;;;;;;38.53;6.65;;;8.00;99.90;;;;;;4918914;29;20051;-47
2022/01/03 08:20:35;;;;;;;44.92;7.10;;;7.90;99.90;;;;;;4945539;28;20466;-48
2022/01/03 08:23:01;;;;;;;41.95;6.53;;;7.90;99.90;;;;;;4925219;29;20106;-48
2022/01/03 08:25:26;;;;;;;35.92;5.88;;;7.90;99.90;;;;;;4940470;28;20126;-48
2022/01/03 08:27:53;;;;;;;37.10;7.45;;;7.90;99.90;;;;;;4917322;29;20079;-50
2022/01/03 08:30:19;;;;;;;47.15;9.43;;;7.90;99.90;;;;;;4924829;29;20135;-48
2022/01/03 08:32:44;;;;;;;45.38;6.43;;;7.90;99.90;;;;;;4924611;29;20047;-48
2022/01/03 08:35:10;;;;;;;38.22;6.18;;;7.90;99.90;;;;;;4907270;29;20052;-47
2022/01/03 08:37:37;;;;;;;35.58;7.80;;;7.90;99.90;;;;;;4925312;29;20040;-47
2022/01/03 08:40:06;;;;;;;34.22;6.88;;;8.00;99.90;;;;;;4925584;29;20048;-50
2022/01/03 08:42:33;;;;;;;41.65;6.60;;;8.00;99.90;;;;;;4942455;28;20106;-49
2022/01/03 08:44:58;;;;;;;44.00;6.88;;;8.10;99.90;;;;;;4943319;28;20050;-49
2022/01/03 08:47:24;;;;;;;45.67;7.35;;;8.10;99.90;;;;;;4942217;28;20050;-49
2022/01/03 08:49:50;;;;;;;46.75;6.85;;;8.20;99.90;;;;;;4943123;28;20055;-47
2022/01/03 08:52:15;;;;;;;36.38;7.45;;;8.20;99.90;;;;;;4943580;28;20086;-49
2022/01/03 08:54:41;;;;;;;38.78;7.07;;;8.20;99.90;;;;;;4924702;29;20407;-50
2022/01/03 08:57:07;;;;;;;40.25;7.90;;;8.20;99.90;;;;;;4944660;28;20154;-49
2022/01/03 08:59:33;;;;;;;35.03;7.18;;;8.20;99.90;;;;;;4925536;29;20524;-50
2022/01/03 09:01:59;;;;;;;34.15;7.10;;;8.20;99.90;;;;;;4943325;29;20043;-53
2022/01/03 09:04:24;;;;;;;42.78;8.63;;;8.20;99.90;;;;;;4941219;28;20052;-48
2022/01/03 09:06:52;;;;;;;41.40;6.10;;;8.20;99.90;;;;;;4942740;28;20062;-47
2022/01/03 09:09:18;;;;;;;35.97;5.72;;;8.20;99.90;;;;;;4941057;29;20047;-49
2022/01/03 09:11:44;;;;;;;43.75;7.15;;;8.10;99.90;;;;;;4916546;29;20070;-49
2022/01/03 09:14:10;;;;;;;43.22;6.70;;;8.10;99.90;;;;;;4935036;29;20048;-51
2022/01/03 09:16:36;;;;;;;36.38;8.13;;;8.20;99.90;;;;;;4938726;29;20557;-47
2022/01/03 09:19:04;;;;;;;44.28;8.18;;;8.10;99.90;;;;;;4942712;29;20051;-49
2022/01/03 09:21:33;;;;;;;29.77;6.35;;;8.20;99.90;;;;;;4941599;29;20510;-49
2022/01/03 09:24:20;;;;;;;37.28;6.70;;;8.20;99.90;;;;;;4937578;29;20055;-47
2022/01/03 09:29:32;;;;;;;34.83;7.35;;;8.20;99.90;;;;;;4918415;29;20055;-48
2022/01/03 09:31:58;;;;;;;39.83;6.65;;;8.30;99.90;;;;;;4922777;29;20050;-47
2022/01/03 09:34:24;;;;;;;34.30;6.80;;;8.30;99.90;;;;;;4928939;28;20095;-48
2022/01/03 09:36:49;;;;;;;31.90;6.95;;;8.30;99.90;;;;;;4915192;29;20054;-49
2022/01/03 09:39:15;;;;;;;37.47;6.47;;;8.30;99.90;;;;;;4927990;29;20465;-48
2022/01/03 09:41:56;;;;;;;36.30;6.05;;;8.40;99.90;;;;;;4917073;28;20081;-49
2022/01/03 09:44:27;;;;;;;40.17;7.50;;;8.40;99.90;;;;;;4924963;28;20483;-48
2022/01/03 09:46:56;;;;;;;46.22;6.85;;;8.40;99.90;;;;;;4928965;29;20042;-48
2022/01/03 09:49:23;;;;;;;35.65;5.95;;;8.40;99.90;;;;;;4914969;29;20103;-48
2022/01/03 09:51:49;;;;;;;42.45;7.32;;;8.40;99.90;;;;;;4930719;29;20525;-49
2022/01/03 09:54:15;;;;;;;32.70;6.13;;;8.40;99.90;;;;;;4928372;28;20051;-49
2022/01/03 09:56:42;;;;;;;37.35;6.32;;;8.40;99.90;;;;;;4916493;29;20055;-47
2022/01/03 09:59:09;;;;;;;36.53;6.18;;;8.50;99.90;;;;;;4922693;28;20051;-50
2022/01/03 10:01:35;;;;;;;42.10;9.52;;;8.50;99.90;;;;;;4938131;29;20054;-48
2022/01/03 10:04:02;;;;;;;32.00;7.60;;;8.50;99.90;;;;;;4945625;29;20478;-47
2022/01/03 10:06:28;;;;;;;32.92;5.60;;;8.50;99.90;;;;;;4946791;28;20062;-49
2022/01/03 10:08:55;;;;;;;34.58;6.95;;;8.50;99.90;;;;;;4945443;29;20553;-51
2022/01/03 10:11:22;;;;;;;33.38;7.20;;;8.60;99.90;;;;;;4945300;29;20070;-49
2022/01/03 10:13:49;;;;;;;44.05;7.40;;;8.60;99.90;;;;;;4931912;29;20066;-51
2022/01/03 10:16:15;;;;;;;38.83;5.63;;;8.70;99.90;;;;;;4942149;29;20111;-50
2022/01/03 10:18:41;;;;;;;28.15;6.00;;;8.60;99.90;;;;;;4924886;28;20054;-47
2022/01/03 10:21:08;;;;;;;37.97;5.93;;;8.70;99.90;;;;;;4943521;28;20047;-50
2022/01/03 10:23:34;;;;;;;32.47;6.63;;;8.70;99.90;;;;;;4943438;28;20047;-48
2022/01/03 10:26:26;;;;;;;32.05;7.97;;;8.70;99.90;;;;;;4942920;28;20040;-48
2022/01/03 10:29:17;;;;;;;36.25;6.95;;;8.70;99.90;;;;;;4942008;28;20398;-47
2022/01/03 10:31:46;;;;;;;36.20;6.88;;;8.80;99.90;;;;;;4928045;28;20496;-48
2022/01/03 10:34:14;;;;;;;32.28;6.10;;;8.70;99.90;;;;;;4918058;28;20133;-51
2022/01/03 10:36:42;;;;;;;43.58;7.40;;;8.80;99.90;;;;;;4930087;28;20516;-47
2022/01/03 10:39:30;;;;;;;31.10;6.45;;;8.80;99.90;;;;;;4928112;29;20062;-46
2022/01/03 10:42:17;;;;;;;38.65;6.65;;;8.80;99.90;;;;;;4940024;28;20057;-47
2022/01/03 10:44:43;;;;;;;30.10;6.85;;;8.80;99.90;;;;;;4903887;28;20066;-48
2022/01/03 10:47:42;;;;;;;35.60;7.30;;;8.80;99.90;;;;;;4926571;29;20419;-48
2022/01/03 10:50:18;;;;;;;30.73;5.53;;;8.80;99.90;;;;;;4882897;29;20063;-48
2022/01/03 10:52:46;;;;;;;43.17;7.50;;;8.90;99.90;;;;;;4879668;29;20149;-47
2022/01/03 10:55:15;;;;;;;44.72;7.55;;;8.90;99.90;;;;;;4872545;29;20542;-47
2022/01/03 10:57:54;;;;;;;34.50;7.03;;;8.90;99.90;;;;;;4871027;29;20152;-48
2022/01/03 11:00:25;;;;;;;30.45;6.60;;;8.90;99.90;;;;;;4866364;29;20069;-47
2022/01/03 11:06:00;;;;;;;31.70;7.53;;;8.90;99.90;;;;;;4878076;29;20603;-48
2022/01/03 11:11:14;;;;;;;27.85;6.20;;;9.00;99.90;;;;;;4883816;29;20484;-50
2022/01/03 11:13:47;;;;;;;29.90;6.53;;;9.00;99.90;;;;;;4885944;29;20630;-49
2022/01/03 11:16:13;;;;;;;30.98;6.05;;;9.10;99.90;;;;;;4885643;29;20075;-49
2022/01/03 11:18:48;;;;;;;34.60;6.53;;;9.00;99.90;;;;;;4885612;29;20144;-47
2022/01/03 11:21:24;;;;;;;32.92;6.80;;;9.00;99.90;;;;;;4884763;29;20060;-50
2022/01/03 11:24:10;;;;;;;33.90;6.05;;;9.00;99.90;;;;;;4869886;29;20109;-51
2022/01/03 11:26:47;;;;;;;31.48;6.75;;;9.00;99.90;;;;;;4908491;29;20056;-50
2022/01/03 11:29:14;;;;;;;29.60;5.28;;;9.00;99.90;;;;;;4930045;29;20055;-48
2022/01/03 11:31:40;;;;;;;32.70;5.82;;;9.10;99.90;;;;;;4926591;29;20118;-55
2022/01/03 11:34:11;;;;;;;36.20;7.78;;;9.10;99.90;;;;;;4923990;29;20403;-48
2022/01/03 11:36:39;;;;;;;25.25;5.82;;;9.10;99.90;;;;;;4936438;29;20055;-51
2022/01/03 11:39:11;;;;;;;33.97;6.43;;;9.10;99.90;;;;;;4916616;29;20146;-48
2022/01/03 11:41:42;;;;;;;27.20;6.22;;;9.10;99.90;;;;;;4937451;29;20051;-48
2022/01/03 11:44:12;;;;;;;34.30;6.22;;;9.10;99.90;;;;;;4916736;29;20058;-47
2022/01/03 11:46:41;;;;;;;34.08;6.85;;;9.10;99.90;;;;;;4938271;28;20046;-48
2022/01/03 11:49:07;;;;;;;29.25;5.95;;;9.10;99.90;;;;;;4921157;28;20143;-47
2022/01/03 11:51:35;;;;;;;26.08;5.93;;;9.20;99.90;;;;;;4938135;28;20051;-47
2022/01/03 11:54:04;;;;;;;30.02;6.65;;;9.20;99.90;;;;;;4933863;28;20079;-47
2022/01/03 11:56:32;;;;;;;31.65;6.28;;;9.20;99.90;;;;;;4935512;28;20138;-49
2022/01/03 12:04:38;;;;;;;35.60;5.93;;;9.40;99.90;;;;;;4931095;29;20051;-47
2022/01/03 12:07:13;;;;;;;32.75;6.97;;;9.50;99.90;;;;;;4935936;29;20454;-48
2022/01/03 12:09:47;;;;;;;26.23;5.05;;;9.50;99.90;;;;;;4935725;28;20051;-48
2022/01/03 12:12:29;;;;;;;;;;;9.50;99.90;;;;;;4936764;28;20051;-51
2022/01/03 12:14:58;;;;;;;30.17;6.85;;;9.50;99.90;;;;;;4935756;28;19931;-50
2022/01/03 12:17:45;;;;;;;32.92;6.53;;;9.50;99.90;;;;;;4939216;28;20051;-48
2022/01/03 12:20:11;;;;;;;31.85;5.90;;;9.40;99.90;;;;;;4913959;28;20051;-48
2022/01/03 12:22:54;;;;;;;39.25;7.63;;;9.40;99.90;;;;;;4915413;29;20118;-49
2022/01/03 12:25:29;;;;;;;28.20;5.45;;;9.40;99.90;;;;;;4917425;29;20052;-48
2022/01/03 12:28:01;;;;;;;36.78;6.63;;;9.40;99.90;;;;;;4907211;29;20070;-50
2022/01/03 12:30:53;;;;;;;30.38;6.43;;;9.40;99.90;;;;;;4920334;29;20438;-48
2022/01/03 12:33:19;;;;;;;30.10;6.97;;;9.40;99.90;;;;;;4936934;28;20071;-48
2022/01/03 12:35:47;;;;;;;31.83;6.15;;;9.40;99.90;;;;;;4940932;28;20074;-49
2022/01/03 12:38:17;;;;;;;34.97;6.70;;;9.40;99.90;;;;;;4936887;28;20043;-49
2022/01/03 12:40:42;;;;;;;39.90;6.95;;;9.40;99.90;;;;;;4935311;28;20065;-50
2022/01/03 12:43:13;;;;;;;36.65;6.03;;;9.40;99.90;;;;;;4935869;28;20486;-49
2022/01/03 12:45:44;;;;;;;37.30;7.63;;;9.30;99.90;;;;;;4939797;28;20050;-50
2022/01/03 12:48:10;;;;;;;30.45;7.38;;;9.30;99.90;;;;;;4921491;29;20054;-51
2022/01/03 12:50:45;;;;;;;35.13;6.80;;;9.30;99.90;;;;;;4938216;28;20039;-51
2022/01/03 12:53:27;;;;;;;32.20;6.85;;;9.30;99.90;;;;;;4939702;28;20051;-51
2022/01/03 12:56:11;;;;;;;36.38;5.88;;;9.30;99.90;;;;;;4917017;28;20052;-48
2022/01/03 12:58:38;;;;;;;;;;;9.30;99.90;;;;;;4936382;28;20135;-50
2022/01/03 13:01:29;;;;;;;34.47;7.10;;;9.40;99.90;;;;;;4934059;29;20022;-48
2022/01/03 13:04:01;;;;;;;33.42;6.22;;;9.40;99.90;;;;;;4920308;29;20079;-48
2022/01/03 13:06:34;;;;;;;35.95;7.68;;;9.30;99.90;;;;;;4918700;29;20054;-49
2022/01/03 13:09:04;;;;;;;36.25;7.65;;;9.30;99.90;;;;;;4916025;29;20491;-48
2022/01/03 13:11:39;;;;;;;34.08;6.18;;;9.30;99.90;;;;;;4913993;29;20537;-48
2022/01/03 13:14:07;;;;;;;33.67;5.93;;;9.30;99.90;;;;;;4936633;29;20066;-50
2022/01/03 13:16:36;;;;;;;35.00;7.53;;;9.30;99.90;;;;;;4932461;29;20047;-48
2022/01/03 13:19:14;;;;;;;34.15;7.80;;;9.30;99.90;;;;;;4917581;29;20047;-52